Airfield :







YOU CAN JOIN US ON...

 
LOGIN :

Register | Disclaimer

   EN    FR    IT 

 









Legend :    VFR   Marginal VFR   IFR   Intensive IFR   Very Intensive IFR
Visi :
Ceiling :
>= 8 km
>= 3000ft
5 to 8 km
1000 to 3000 ft
1500m to 5 km
500 to 1000 ft
800 to 1500m
200 to 500 ft
< 800m
< 200 ft
Symbols :   Thunderstorms  Fog  Heavy snow  Heavy precipitations  Wind > 20 kt






- Airport Elevation : 171 ft
- IATA code : KEF


BIKF - Keflavik International

CURRENT METAR :
  • 120530Z 04020G30KT 9999 FEW021 M02/M06 Q0986 R01/090063

EXPIRED METARs :
  • 120500Z 04023G33KT 9999 FEW021 M02/M06 Q0986 R01/090063
  • 120430Z 04023G33KT 9999 FEW021 M02/M06 Q0986
  • 120400Z 04024KT 9999 SCT022 M02/M06 Q0986
  • 120330Z 05022KT 9999 FEW020 M02/M05 Q0986
  • 120300Z 04021KT 9999 FEW022 M02/M05 Q0986

TAF TAF BIKF
Valid from the 12 at 06:00 until the 13 at 06:00 UTC


120409Z 1206/1306 03022KT 9999 FEW040 TXM01/1215Z TNM07/1306Z
BECMG 1300/1302 04012KT



MET'MAP, your aeronautical weather chart ! - Copyright ORBIFLY December 2007 - Disclaimer

ORBIFLY MET'MAP TEAM :

Programming & Development : Alexandra Zaïnal
Concept & original design : Baudouin d'Aumeries
Assistance for programming : Marc-Olivier Méhu
Technical & hardware support : Manuel Goepfert

Contact : metmap@orbifly.com




SOURCES & CREDITS :

   NOAA